sensor_id;sensor_type;location;lat;lon;timestamp;P1;durP1;ratioP1;P2;durP2;ratioP2
7398;SDS011;3740;50.700;7.184;2022-10-17T00:01:48;5.03;;;4.57;;
7398;SDS011;3740;50.700;7.184;2022-10-17T00:04:13;5.05;;;4.45;;
7398;SDS011;3740;50.700;7.184;2022-10-17T00:06:39;5.95;;;4.55;;
7398;SDS011;3740;50.700;7.184;2022-10-17T00:09:05;5.23;;;4.73;;
7398;SDS011;3740;50.700;7.184;2022-10-17T00:11:31;5.65;;;4.80;;
7398;SDS011;3740;50.700;7.184;2022-10-17T00:13:57;6.05;;;5.18;;
7398;SDS011;3740;50.700;7.184;2022-10-17T00:18:54;4.40;;;4.00;;
7398;SDS011;3740;50.700;7.184;2022-10-17T00:21:21;5.13;;;4.53;;
7398;SDS011;3740;50.700;7.184;2022-10-17T00:23:47;6.72;;;4.28;;
7398;SDS011;3740;50.700;7.184;2022-10-17T00:26:12;4.72;;;4.32;;
7398;SDS011;3740;50.700;7.184;2022-10-17T00:28:39;5.53;;;4.40;;
7398;SDS011;3740;50.700;7.184;2022-10-17T00:31:05;7.05;;;4.18;;
7398;SDS011;3740;50.700;7.184;2022-10-17T00:33:32;6.47;;;4.33;;
7398;SDS011;3740;50.700;7.184;2022-10-17T00:36:05;4.97;;;4.57;;
7398;SDS011;3740;50.700;7.184;2022-10-17T00:38:34;5.70;;;4.28;;
7398;SDS011;3740;50.700;7.184;2022-10-17T00:41:00;5.10;;;4.65;;
7398;SDS011;3740;50.700;7.184;2022-10-17T00:43:28;5.07;;;4.53;;
7398;SDS011;3740;50.700;7.184;2022-10-17T00:45:54;4.68;;;4.28;;
7398;SDS011;3740;50.700;7.184;2022-10-17T00:48:22;5.03;;;4.53;;
7398;SDS011;3740;50.700;7.184;2022-10-17T00:50:49;5.73;;;4.40;;
7398;SDS011;3740;50.700;7.184;2022-10-17T00:53:15;4.77;;;4.37;;
7398;SDS011;3740;50.700;7.184;2022-10-17T00:55:47;4.90;;;4.40;;
7398;SDS011;3740;50.700;7.184;2022-10-17T00:58:15;5.57;;;4.68;;
7398;SDS011;3740;50.700;7.184;2022-10-17T01:00:42;5.30;;;4.53;;
7398;SDS011;3740;50.700;7.184;2022-10-17T01:03:08;6.50;;;4.83;;
7398;SDS011;3740;50.700;7.184;2022-10-17T01:05:34;5.17;;;4.43;;
7398;SDS011;3740;50.700;7.184;2022-10-17T01:08:00;4.70;;;4.30;;
7398;SDS011;3740;50.700;7.184;2022-10-17T01:10:29;7.23;;;4.90;;
7398;SDS011;3740;50.700;7.184;2022-10-17T01:13:20;5.97;;;4.30;;
7398;SDS011;3740;50.700;7.184;2022-10-17T01:18:59;5.40;;;4.23;;
7398;SDS011;3740;50.700;7.184;2022-10-17T01:31:58;5.57;;;4.73;;
7398;SDS011;3740;50.700;7.184;2022-10-17T01:34:34;5.60;;;5.10;;
7398;SDS011;3740;50.700;7.184;2022-10-17T01:37:20;8.97;;;4.80;;
7398;SDS011;3740;50.700;7.184;2022-10-17T01:40:03;6.50;;;5.03;;
7398;SDS011;3740;50.700;7.184;2022-10-17T01:47:40;5.43;;;4.93;;
7398;SDS011;3740;50.700;7.184;2022-10-17T01:50:11;5.22;;;4.60;;
7398;SDS011;3740;50.700;7.184;2022-10-17T01:52:42;5.53;;;5.00;;
7398;SDS011;3740;50.700;7.184;2022-10-17T01:55:14;5.77;;;4.80;;
7398;SDS011;3740;50.700;7.184;2022-10-17T01:57:48;5.97;;;4.73;;
7398;SDS011;3740;50.700;7.184;2022-10-17T02:00:22;5.63;;;4.80;;
7398;SDS011;3740;50.700;7.184;2022-10-17T02:02:51;7.53;;;5.10;;
7398;SDS011;3740;50.700;7.184;2022-10-17T02:05:25;6.13;;;4.73;;
7398;SDS011;3740;50.700;7.184;2022-10-17T02:07:54;9.10;;;5.03;;
7398;SDS011;3740;50.700;7.184;2022-10-17T02:10:21;5.37;;;4.83;;
7398;SDS011;3740;50.700;7.184;2022-10-17T02:13:08;5.63;;;4.57;;
7398;SDS011;3740;50.700;7.184;2022-10-17T02:20:49;7.23;;;5.33;;
7398;SDS011;3740;50.700;7.184;2022-10-17T02:23:29;8.07;;;5.27;;
7398;SDS011;3740;50.700;7.184;2022-10-17T02:28:55;5.57;;;5.00;;
7398;SDS011;3740;50.700;7.184;2022-10-17T02:31:54;5.30;;;4.80;;
7398;SDS011;3740;50.700;7.184;2022-10-17T02:37:00;5.50;;;5.00;;
7398;SDS011;3740;50.700;7.184;2022-10-17T02:39:29;5.50;;;4.97;;
7398;SDS011;3740;50.700;7.184;2022-10-17T02:41:57;5.50;;;5.00;;
7398;SDS011;3740;50.700;7.184;2022-10-17T02:44:26;6.20;;;4.87;;
7398;SDS011;3740;50.700;7.184;2022-10-17T02:46:54;6.57;;;5.10;;
7398;SDS011;3740;50.700;7.184;2022-10-17T02:49:28;6.77;;;5.40;;
7398;SDS011;3740;50.700;7.184;2022-10-17T02:54:36;6.83;;;5.10;;
7398;SDS011;3740;50.700;7.184;2022-10-17T02:57:15;6.87;;;4.90;;
7398;SDS011;3740;50.700;7.184;2022-10-17T03:00:04;5.77;;;4.80;;
7398;SDS011;3740;50.700;7.184;2022-10-17T03:02:41;5.50;;;5.00;;
7398;SDS011;3740;50.700;7.184;2022-10-17T03:05:18;5.37;;;4.60;;
7398;SDS011;3740;50.700;7.184;2022-10-17T03:07:49;5.37;;;4.90;;
7398;SDS011;3740;50.700;7.184;2022-10-17T03:10:16;5.43;;;4.93;;
7398;SDS011;3740;50.700;7.184;2022-10-17T03:12:43;6.40;;;4.90;;
7398;SDS011;3740;50.700;7.184;2022-10-17T03:15:09;8.83;;;4.93;;
7398;SDS011;3740;50.700;7.184;2022-10-17T03:17:35;5.87;;;4.90;;
7398;SDS011;3740;50.700;7.184;2022-10-17T03:20:01;5.57;;;4.60;;
7398;SDS011;3740;50.700;7.184;2022-10-17T03:22:27;8.63;;;5.33;;
7398;SDS011;3740;50.700;7.184;2022-10-17T03:24:52;5.03;;;4.53;;
7398;SDS011;3740;50.700;7.184;2022-10-17T03:27:18;6.93;;;5.00;;
7398;SDS011;3740;50.700;7.184;2022-10-17T03:29:43;4.97;;;4.47;;
7398;SDS011;3740;50.700;7.184;2022-10-17T03:32:09;7.23;;;5.10;;
7398;SDS011;3740;50.700;7.184;2022-10-17T03:34:35;5.47;;;4.97;;
7398;SDS011;3740;50.700;7.184;2022-10-17T03:37:00;5.90;;;4.73;;
7398;SDS011;3740;50.700;7.184;2022-10-17T03:39:26;8.10;;;5.40;;
7398;SDS011;3740;50.700;7.184;2022-10-17T03:41:51;5.43;;;4.93;;
7398;SDS011;3740;50.700;7.184;2022-10-17T03:44:17;7.30;;;5.00;;
7398;SDS011;3740;50.700;7.184;2022-10-17T03:46:42;5.87;;;4.40;;
7398;SDS011;3740;50.700;7.184;2022-10-17T03:49:08;7.27;;;4.67;;
7398;SDS011;3740;50.700;7.184;2022-10-17T03:51:34;4.90;;;4.40;;
7398;SDS011;3740;50.700;7.184;2022-10-17T03:54:00;4.73;;;4.30;;
7398;SDS011;3740;50.700;7.184;2022-10-17T03:56:26;9.93;;;4.60;;
7398;SDS011;3740;50.700;7.184;2022-10-17T03:58:52;6.13;;;4.63;;
7398;SDS011;3740;50.700;7.184;2022-10-17T04:01:19;9.40;;;5.13;;
7398;SDS011;3740;50.700;7.184;2022-10-17T04:03:52;4.83;;;4.20;;
7398;SDS011;3740;50.700;7.184;2022-10-17T04:06:19;5.53;;;4.57;;
7398;SDS011;3740;50.700;7.184;2022-10-17T04:08:45;6.00;;;4.90;;
7398;SDS011;3740;50.700;7.184;2022-10-17T04:11:15;4.77;;;4.37;;
7398;SDS011;3740;50.700;7.184;2022-10-17T04:13:43;7.17;;;4.43;;
7398;SDS011;3740;50.700;7.184;2022-10-17T04:16:10;5.93;;;4.60;;
7398;SDS011;3740;50.700;7.184;2022-10-17T04:18:37;4.60;;;4.20;;
7398;SDS011;3740;50.700;7.184;2022-10-17T04:21:04;5.33;;;4.50;;
7398;SDS011;3740;50.700;7.184;2022-10-17T04:23:30;4.60;;;4.20;;
7398;SDS011;3740;50.700;7.184;2022-10-17T04:25:59;8.65;;;4.60;;
7398;SDS011;3740;50.700;7.184;2022-10-17T04:28:26;8.00;;;5.05;;
7398;SDS011;3740;50.700;7.184;2022-10-17T04:31:04;6.28;;;4.93;;
7398;SDS011;3740;50.700;7.184;2022-10-17T04:33:32;5.85;;;4.25;;
7398;SDS011;3740;50.700;7.184;2022-10-17T04:36:00;5.10;;;4.50;;
7398;SDS011;3740;50.700;7.184;2022-10-17T04:38:38;5.88;;;4.63;;
7398;SDS011;3740;50.700;7.184;2022-10-17T04:41:05;6.68;;;4.50;;
7398;SDS011;3740;50.700;7.184;2022-10-17T04:43:33;6.33;;;4.40;;
7398;SDS011;3740;50.700;7.184;2022-10-17T04:46:01;4.33;;;4.00;;
7398;SDS011;3740;50.700;7.184;2022-10-17T04:48:28;4.73;;;4.30;;
7398;SDS011;3740;50.700;7.184;2022-10-17T04:50:54;5.60;;;5.07;;
7398;SDS011;3740;50.700;7.184;2022-10-17T04:53:21;12.10;;;4.87;;
7398;SDS011;3740;50.700;7.184;2022-10-17T04:55:47;5.67;;;4.70;;
7398;SDS011;3740;50.700;7.184;2022-10-17T04:58:13;6.53;;;4.67;;
7398;SDS011;3740;50.700;7.184;2022-10-17T05:00:38;5.97;;;4.80;;
7398;SDS011;3740;50.700;7.184;2022-10-17T05:03:04;5.43;;;4.80;;
7398;SDS011;3740;50.700;7.184;2022-10-17T05:05:30;6.90;;;4.97;;
7398;SDS011;3740;50.700;7.184;2022-10-17T05:07:55;6.73;;;4.70;;
7398;SDS011;3740;50.700;7.184;2022-10-17T05:10:21;6.60;;;4.83;;
7398;SDS011;3740;50.700;7.184;2022-10-17T05:12:47;5.53;;;4.90;;
7398;SDS011;3740;50.700;7.184;2022-10-17T05:15:14;5.97;;;4.40;;
7398;SDS011;3740;50.700;7.184;2022-10-17T05:17:39;5.10;;;4.63;;
7398;SDS011;3740;50.700;7.184;2022-10-17T05:20:05;5.40;;;4.90;;
7398;SDS011;3740;50.700;7.184;2022-10-17T05:22:31;8.30;;;4.90;;
7398;SDS011;3740;50.700;7.184;2022-10-17T05:24:57;5.63;;;4.60;;
7398;SDS011;3740;50.700;7.184;2022-10-17T05:27:22;5.40;;;4.90;;
7398;SDS011;3740;50.700;7.184;2022-10-17T05:29:48;5.97;;;4.80;;
7398;SDS011;3740;50.700;7.184;2022-10-17T05:32:14;6.90;;;5.00;;
7398;SDS011;3740;50.700;7.184;2022-10-17T05:34:40;4.90;;;4.50;;
7398;SDS011;3740;50.700;7.184;2022-10-17T05:37:06;4.90;;;4.40;;
7398;SDS011;3740;50.700;7.184;2022-10-17T05:39:31;5.83;;;4.60;;
7398;SDS011;3740;50.700;7.184;2022-10-17T05:41:57;5.23;;;4.73;;
7398;SDS011;3740;50.700;7.184;2022-10-17T05:44:22;5.50;;;4.60;;
7398;SDS011;3740;50.700;7.184;2022-10-17T05:46:48;9.57;;;4.85;;
7398;SDS011;3740;50.700;7.184;2022-10-17T05:49:14;9.40;;;5.00;;
7398;SDS011;3740;50.700;7.184;2022-10-17T05:51:40;5.40;;;4.90;;
7398;SDS011;3740;50.700;7.184;2022-10-17T05:54:06;6.07;;;4.80;;
7398;SDS011;3740;50.700;7.184;2022-10-17T05:56:32;5.10;;;4.63;;
7398;SDS011;3740;50.700;7.184;2022-10-17T05:58:59;5.03;;;4.50;;
7398;SDS011;3740;50.700;7.184;2022-10-17T06:01:24;5.60;;;5.00;;
7398;SDS011;3740;50.700;7.184;2022-10-17T06:03:50;4.97;;;4.43;;
7398;SDS011;3740;50.700;7.184;2022-10-17T06:06:16;4.93;;;4.53;;
7398;SDS011;3740;50.700;7.184;2022-10-17T06:08:42;5.68;;;4.60;;
7398;SDS011;3740;50.700;7.184;2022-10-17T06:11:09;7.73;;;4.80;;
7398;SDS011;3740;50.700;7.184;2022-10-17T06:13:35;6.17;;;4.67;;
7398;SDS011;3740;50.700;7.184;2022-10-17T06:16:00;5.57;;;5.07;;
7398;SDS011;3740;50.700;7.184;2022-10-17T06:18:26;5.20;;;4.70;;
7398;SDS011;3740;50.700;7.184;2022-10-17T06:20:52;5.80;;;4.70;;
7398;SDS011;3740;50.700;7.184;2022-10-17T06:23:17;6.73;;;5.30;;
7398;SDS011;3740;50.700;7.184;2022-10-17T06:25:43;7.33;;;4.83;;
7398;SDS011;3740;50.700;7.184;2022-10-17T06:28:08;6.53;;;4.90;;
7398;SDS011;3740;50.700;7.184;2022-10-17T06:30:38;7.90;;;4.63;;
7398;SDS011;3740;50.700;7.184;2022-10-17T06:33:05;7.83;;;5.20;;
7398;SDS011;3740;50.700;7.184;2022-10-17T06:35:31;7.43;;;4.90;;
7398;SDS011;3740;50.700;7.184;2022-10-17T06:37:56;7.23;;;5.40;;
7398;SDS011;3740;50.700;7.184;2022-10-17T06:40:22;8.53;;;5.50;;
7398;SDS011;3740;50.700;7.184;2022-10-17T06:42:47;6.37;;;4.93;;
7398;SDS011;3740;50.700;7.184;2022-10-17T06:45:13;6.37;;;5.03;;
7398;SDS011;3740;50.700;7.184;2022-10-17T06:47:39;7.90;;;5.57;;
7398;SDS011;3740;50.700;7.184;2022-10-17T06:50:05;6.20;;;5.22;;
7398;SDS011;3740;50.700;7.184;2022-10-17T06:52:30;7.00;;;5.37;;
7398;SDS011;3740;50.700;7.184;2022-10-17T06:54:56;6.93;;;5.65;;
7398;SDS011;3740;50.700;7.184;2022-10-17T06:57:22;6.10;;;4.70;;
7398;SDS011;3740;50.700;7.184;2022-10-17T06:59:47;8.13;;;5.53;;
7398;SDS011;3740;50.700;7.184;2022-10-17T07:02:13;5.00;;;4.60;;
7398;SDS011;3740;50.700;7.184;2022-10-17T07:04:38;7.63;;;4.90;;
7398;SDS011;3740;50.700;7.184;2022-10-17T07:07:04;5.27;;;4.77;;
7398;SDS011;3740;50.700;7.184;2022-10-17T07:09:30;5.20;;;4.80;;
7398;SDS011;3740;50.700;7.184;2022-10-17T07:11:57;5.47;;;4.97;;
7398;SDS011;3740;50.700;7.184;2022-10-17T07:14:23;7.47;;;5.22;;
7398;SDS011;3740;50.700;7.184;2022-10-17T07:16:56;7.68;;;5.15;;
7398;SDS011;3740;50.700;7.184;2022-10-17T07:19:22;6.23;;;4.90;;
7398;SDS011;3740;50.700;7.184;2022-10-17T07:21:48;6.00;;;4.63;;
7398;SDS011;3740;50.700;7.184;2022-10-17T07:24:14;5.73;;;5.13;;
7398;SDS011;3740;50.700;7.184;2022-10-17T07:26:40;6.45;;;5.15;;
7398;SDS011;3740;50.700;7.184;2022-10-17T07:29:06;5.10;;;4.65;;
7398;SDS011;3740;50.700;7.184;2022-10-17T07:31:31;6.18;;;5.05;;
7398;SDS011;3740;50.700;7.184;2022-10-17T07:33:58;5.82;;;4.95;;
7398;SDS011;3740;50.700;7.184;2022-10-17T07:36:24;6.47;;;4.78;;
7398;SDS011;3740;50.700;7.184;2022-10-17T07:38:50;8.10;;;4.40;;
7398;SDS011;3740;50.700;7.184;2022-10-17T07:41:15;5.20;;;4.70;;
7398;SDS011;3740;50.700;7.184;2022-10-17T07:43:41;5.28;;;4.47;;
7398;SDS011;3740;50.700;7.184;2022-10-17T07:46:07;8.45;;;4.63;;
7398;SDS011;3740;50.700;7.184;2022-10-17T07:48:33;6.13;;;4.73;;
7398;SDS011;3740;50.700;7.184;2022-10-17T07:51:03;5.07;;;4.00;;
7398;SDS011;3740;50.700;7.184;2022-10-17T07:53:29;4.40;;;4.00;;
7398;SDS011;3740;50.700;7.184;2022-10-17T07:55:55;5.05;;;4.00;;
7398;SDS011;3740;50.700;7.184;2022-10-17T07:58:21;4.68;;;4.28;;
7398;SDS011;3740;50.700;7.184;2022-10-17T08:00:46;4.15;;;3.78;;
7398;SDS011;3740;50.700;7.184;2022-10-17T08:03:13;6.15;;;4.50;;
7398;SDS011;3740;50.700;7.184;2022-10-17T08:05:39;7.47;;;4.00;;
7398;SDS011;3740;50.700;7.184;2022-10-17T08:08:04;7.72;;;4.00;;
7398;SDS011;3740;50.700;7.184;2022-10-17T08:10:30;4.50;;;4.10;;
7398;SDS011;3740;50.700;7.184;2022-10-17T08:12:56;6.43;;;4.53;;
7398;SDS011;3740;50.700;7.184;2022-10-17T08:15:25;5.25;;;4.25;;
7398;SDS011;3740;50.700;7.184;2022-10-17T08:17:51;4.00;;;3.60;;
7398;SDS011;3740;50.700;7.184;2022-10-17T08:20:18;5.03;;;3.95;;
7398;SDS011;3740;50.700;7.184;2022-10-17T08:22:48;4.05;;;3.65;;
7398;SDS011;3740;50.700;7.184;2022-10-17T08:25:16;3.60;;;3.30;;
7398;SDS011;3740;50.700;7.184;2022-10-17T08:27:43;5.07;;;3.60;;
7398;SDS011;3740;50.700;7.184;2022-10-17T08:30:09;4.13;;;3.75;;
7398;SDS011;3740;50.700;7.184;2022-10-17T08:32:35;5.15;;;4.00;;
7398;SDS011;3740;50.700;7.184;2022-10-17T08:35:00;4.40;;;4.00;;
7398;SDS011;3740;50.700;7.184;2022-10-17T08:37:26;4.90;;;3.75;;
7398;SDS011;3740;50.700;7.184;2022-10-17T08:39:52;6.28;;;3.90;;
7398;SDS011;3740;50.700;7.184;2022-10-17T08:42:33;5.15;;;3.92;;
7398;SDS011;3740;50.700;7.184;2022-10-17T08:45:24;5.43;;;3.92;;
7398;SDS011;3740;50.700;7.184;2022-10-17T08:47:57;4.20;;;3.50;;
7398;SDS011;3740;50.700;7.184;2022-10-17T08:50:33;6.28;;;4.38;;
7398;SDS011;3740;50.700;7.184;2022-10-17T08:53:02;5.20;;;3.72;;
7398;SDS011;3740;50.700;7.184;2022-10-17T08:55:50;3.80;;;3.40;;
7398;SDS011;3740;50.700;7.184;2022-10-17T08:58:21;6.40;;;4.43;;
7398;SDS011;3740;50.700;7.184;2022-10-17T09:01:04;6.85;;;3.95;;
7398;SDS011;3740;50.700;7.184;2022-10-17T09:06:31;4.25;;;3.75;;
7398;SDS011;3740;50.700;7.184;2022-10-17T09:09:29;5.30;;;4.18;;
7398;SDS011;3740;50.700;7.184;2022-10-17T09:20:18;4.28;;;3.58;;
7398;SDS011;3740;50.700;7.184;2022-10-17T09:25:28;6.60;;;4.40;;
7398;SDS011;3740;50.700;7.184;2022-10-17T09:28:16;4.45;;;4.10;;
7398;SDS011;3740;50.700;7.184;2022-10-17T09:30:46;4.18;;;3.78;;
7398;SDS011;3740;50.700;7.184;2022-10-17T09:33:18;4.72;;;4.03;;
7398;SDS011;3740;50.700;7.184;2022-10-17T09:36:04;4.30;;;3.90;;
7398;SDS011;3740;50.700;7.184;2022-10-17T09:38:42;8.40;;;4.00;;
7398;SDS011;3740;50.700;7.184;2022-10-17T09:41:15;6.22;;;3.80;;
7398;SDS011;3740;50.700;7.184;2022-10-17T09:43:45;5.00;;;3.60;;
7398;SDS011;3740;50.700;7.184;2022-10-17T09:46:14;5.32;;;4.00;;
7398;SDS011;3740;50.700;7.184;2022-10-17T09:48:49;5.30;;;3.78;;
7398;SDS011;3740;50.700;7.184;2022-10-17T09:51:20;4.93;;;3.30;;
7398;SDS011;3740;50.700;7.184;2022-10-17T09:53:48;4.53;;;3.60;;
7398;SDS011;3740;50.700;7.184;2022-10-17T09:56:18;5.05;;;3.67;;
7398;SDS011;3740;50.700;7.184;2022-10-17T10:01:22;5.18;;;3.10;;
7398;SDS011;3740;50.700;7.184;2022-10-17T10:04:11;5.40;;;3.40;;
7398;SDS011;3740;50.700;7.184;2022-10-17T10:06:41;3.83;;;3.20;;
7398;SDS011;3740;50.700;7.184;2022-10-17T10:09:27;3.40;;;3.10;;
7398;SDS011;3740;50.700;7.184;2022-10-17T10:11:55;7.70;;;3.78;;
7398;SDS011;3740;50.700;7.184;2022-10-17T10:14:24;4.47;;;3.20;;
7398;SDS011;3740;50.700;7.184;2022-10-17T10:17:04;3.53;;;3.05;;
7398;SDS011;3740;50.700;7.184;2022-10-17T10:19:50;3.22;;;2.65;;
7398;SDS011;3740;50.700;7.184;2022-10-17T10:22:17;4.78;;;3.17;;
7398;SDS011;3740;50.700;7.184;2022-10-17T10:24:44;3.13;;;2.70;;
7398;SDS011;3740;50.700;7.184;2022-10-17T10:27:11;4.18;;;2.80;;
7398;SDS011;3740;50.700;7.184;2022-10-17T10:29:47;3.38;;;2.40;;
7398;SDS011;3740;50.700;7.184;2022-10-17T10:32:16;4.20;;;3.05;;
7398;SDS011;3740;50.700;7.184;2022-10-17T10:37:19;2.97;;;2.55;;
7398;SDS011;3740;50.700;7.184;2022-10-17T10:40:43;3.25;;;2.67;;
7398;SDS011;3740;50.700;7.184;2022-10-17T10:42:55;2.90;;;2.70;;
7398;SDS011;3740;50.700;7.184;2022-10-17T10:45:24;5.15;;;2.95;;
7398;SDS011;3740;50.700;7.184;2022-10-17T10:48:24;4.18;;;2.70;;
7398;SDS011;3740;50.700;7.184;2022-10-17T10:53:40;3.70;;;2.90;;
7398;SDS011;3740;50.700;7.184;2022-10-17T10:58:56;3.28;;;2.30;;
7398;SDS011;3740;50.700;7.184;2022-10-17T11:04:20;3.03;;;2.75;;
7398;SDS011;3740;50.700;7.184;2022-10-17T11:12:26;3.55;;;2.90;;
7398;SDS011;3740;50.700;7.184;2022-10-17T11:14:59;2.72;;;2.20;;
7398;SDS011;3740;50.700;7.184;2022-10-17T11:17:44;4.53;;;2.75;;
7398;SDS011;3740;50.700;7.184;2022-10-17T11:20:28;3.15;;;2.90;;
7398;SDS011;3740;50.700;7.184;2022-10-17T11:23:03;3.53;;;2.60;;
7398;SDS011;3740;50.700;7.184;2022-10-17T11:25:44;4.10;;;3.08;;
7398;SDS011;3740;50.700;7.184;2022-10-17T11:28:14;3.60;;;3.10;;
7398;SDS011;3740;50.700;7.184;2022-10-17T11:33:46;5.65;;;2.83;;
7398;SDS011;3740;50.700;7.184;2022-10-17T11:36:16;3.08;;;2.78;;
7398;SDS011;3740;50.700;7.184;2022-10-17T11:38:55;6.28;;;3.50;;
7398;SDS011;3740;50.700;7.184;2022-10-17T11:46:59;3.58;;;3.15;;
7398;SDS011;3740;50.700;7.184;2022-10-17T11:49:44;4.45;;;3.10;;
7398;SDS011;3740;50.700;7.184;2022-10-17T11:52:27;3.30;;;2.97;;
7398;SDS011;3740;50.700;7.184;2022-10-17T11:55:14;3.78;;;2.97;;
7398;SDS011;3740;50.700;7.184;2022-10-17T11:57:58;4.43;;;3.30;;
7398;SDS011;3740;50.700;7.184;2022-10-17T12:00:56;3.22;;;2.92;;
7398;SDS011;3740;50.700;7.184;2022-10-17T12:12:06;4.55;;;3.47;;
7398;SDS011;3740;50.700;7.184;2022-10-17T12:17:20;3.63;;;3.33;;
7398;SDS011;3740;50.700;7.184;2022-10-17T12:19:49;4.53;;;3.35;;
7398;SDS011;3740;50.700;7.184;2022-10-17T12:24:51;3.50;;;3.20;;
7398;SDS011;3740;50.700;7.184;2022-10-17T12:27:21;3.45;;;3.08;;
7398;SDS011;3740;50.700;7.184;2022-10-17T12:29:57;5.15;;;3.40;;
7398;SDS011;3740;50.700;7.184;2022-10-17T12:32:25;3.28;;;2.97;;
7398;SDS011;3740;50.700;7.184;2022-10-17T12:34:51;3.60;;;3.30;;
7398;SDS011;3740;50.700;7.184;2022-10-17T12:43:00;4.38;;;3.15;;
7398;SDS011;3740;50.700;7.184;2022-10-17T12:45:47;4.47;;;3.67;;
7398;SDS011;3740;50.700;7.184;2022-10-17T12:49:20;6.10;;;3.70;;
7398;SDS011;3740;50.700;7.184;2022-10-17T12:51:23;7.72;;;4.00;;
7398;SDS011;3740;50.700;7.184;2022-10-17T12:53:59;4.35;;;3.60;;
7398;SDS011;3740;50.700;7.184;2022-10-17T12:56:35;5.70;;;3.63;;
7398;SDS011;3740;50.700;7.184;2022-10-17T12:59:20;3.88;;;3.45;;
7398;SDS011;3740;50.700;7.184;2022-10-17T13:01:50;7.25;;;4.00;;
7398;SDS011;3740;50.700;7.184;2022-10-17T13:04:18;5.05;;;3.80;;
7398;SDS011;3740;50.700;7.184;2022-10-17T13:06:52;7.25;;;3.92;;
7398;SDS011;3740;50.700;7.184;2022-10-17T13:09:31;5.85;;;4.15;;
7398;SDS011;3740;50.700;7.184;2022-10-17T13:12:01;4.93;;;3.85;;
7398;SDS011;3740;50.700;7.184;2022-10-17T13:14:29;6.40;;;3.85;;
7398;SDS011;3740;50.700;7.184;2022-10-17T13:19:39;4.32;;;3.50;;
7398;SDS011;3740;50.700;7.184;2022-10-17T13:22:20;5.13;;;3.70;;
7398;SDS011;3740;50.700;7.184;2022-10-17T13:24:52;4.85;;;4.00;;
7398;SDS011;3740;50.700;7.184;2022-10-17T13:27:31;4.78;;;3.75;;
7398;SDS011;3740;50.700;7.184;2022-10-17T13:29:59;6.68;;;4.05;;
7398;SDS011;3740;50.700;7.184;2022-10-17T13:32:38;4.38;;;3.97;;
7398;SDS011;3740;50.700;7.184;2022-10-17T13:35:12;4.43;;;4.03;;
7398;SDS011;3740;50.700;7.184;2022-10-17T13:37:41;5.13;;;4.15;;
7398;SDS011;3740;50.700;7.184;2022-10-17T13:40:19;5.97;;;4.50;;
7398;SDS011;3740;50.700;7.184;2022-10-17T13:42:48;5.15;;;4.13;;
7398;SDS011;3740;50.700;7.184;2022-10-17T13:45:23;4.53;;;4.13;;
7398;SDS011;3740;50.700;7.184;2022-10-17T13:47:53;6.13;;;4.05;;
7398;SDS011;3740;50.700;7.184;2022-10-17T13:50:22;6.30;;;3.85;;
7398;SDS011;3740;50.700;7.184;2022-10-17T13:55:37;4.93;;;3.45;;
7398;SDS011;3740;50.700;7.184;2022-10-17T13:58:15;4.13;;;3.70;;
7398;SDS011;3740;50.700;7.184;2022-10-17T14:00:42;4.38;;;3.53;;
7398;SDS011;3740;50.700;7.184;2022-10-17T14:03:08;4.47;;;3.90;;
7398;SDS011;3740;50.700;7.184;2022-10-17T14:05:35;4.30;;;3.90;;
7398;SDS011;3740;50.700;7.184;2022-10-17T14:08:20;4.18;;;3.70;;
7398;SDS011;3740;50.700;7.184;2022-10-17T14:10:46;5.53;;;3.85;;
7398;SDS011;3740;50.700;7.184;2022-10-17T14:13:21;4.20;;;3.80;;
7398;SDS011;3740;50.700;7.184;2022-10-17T14:15:50;4.88;;;3.80;;
7398;SDS011;3740;50.700;7.184;2022-10-17T14:18:18;4.45;;;3.45;;
7398;SDS011;3740;50.700;7.184;2022-10-17T14:20:48;4.97;;;3.50;;
7398;SDS011;3740;50.700;7.184;2022-10-17T14:23:32;6.32;;;3.50;;
7398;SDS011;3740;50.700;7.184;2022-10-17T14:26:06;5.43;;;3.78;;
7398;SDS011;3740;50.700;7.184;2022-10-17T14:28:37;5.00;;;3.47;;
7398;SDS011;3740;50.700;7.184;2022-10-17T14:33:49;7.10;;;3.67;;
7398;SDS011;3740;50.700;7.184;2022-10-17T14:36:17;4.82;;;3.40;;
7398;SDS011;3740;50.700;7.184;2022-10-17T14:38:45;4.60;;;3.10;;
7398;SDS011;3740;50.700;7.184;2022-10-17T14:44:06;5.65;;;3.53;;
7398;SDS011;3740;50.700;7.184;2022-10-17T14:46:42;4.75;;;3.30;;
7398;SDS011;3740;50.700;7.184;2022-10-17T14:49:25;3.85;;;3.50;;
7398;SDS011;3740;50.700;7.184;2022-10-17T14:52:35;4.95;;;3.33;;
7398;SDS011;3740;50.700;7.184;2022-10-17T14:54:57;4.18;;;3.47;;
7398;SDS011;3740;50.700;7.184;2022-10-17T14:57:33;4.55;;;3.35;;
7398;SDS011;3740;50.700;7.184;2022-10-17T15:00:06;6.28;;;3.92;;
7398;SDS011;3740;50.700;7.184;2022-10-17T15:02:34;5.00;;;3.60;;
7398;SDS011;3740;50.700;7.184;2022-10-17T15:05:00;7.25;;;3.70;;
7398;SDS011;3740;50.700;7.184;2022-10-17T15:07:25;8.73;;;3.95;;
7398;SDS011;3740;50.700;7.184;2022-10-17T15:09:51;3.85;;;3.53;;
7398;SDS011;3740;50.700;7.184;2022-10-17T15:12:19;3.50;;;2.88;;
7398;SDS011;3740;50.700;7.184;2022-10-17T15:14:49;5.72;;;3.47;;
7398;SDS011;3740;50.700;7.184;2022-10-17T15:19:52;3.42;;;3.13;;
7398;SDS011;3740;50.700;7.184;2022-10-17T15:22:18;5.53;;;3.65;;
7398;SDS011;3740;50.700;7.184;2022-10-17T15:24:45;4.88;;;3.22;;
7398;SDS011;3740;50.700;7.184;2022-10-17T15:27:13;4.80;;;3.10;;
7398;SDS011;3740;50.700;7.184;2022-10-17T15:29:40;4.57;;;3.13;;
7398;SDS011;3740;50.700;7.184;2022-10-17T15:32:06;4.88;;;3.50;;
7398;SDS011;3740;50.700;7.184;2022-10-17T15:34:32;5.50;;;3.53;;
7398;SDS011;3740;50.700;7.184;2022-10-17T15:36:57;4.57;;;3.38;;
7398;SDS011;3740;50.700;7.184;2022-10-17T15:39:23;5.35;;;3.47;;
7398;SDS011;3740;50.700;7.184;2022-10-17T15:41:48;4.47;;;3.35;;
7398;SDS011;3740;50.700;7.184;2022-10-17T15:44:14;3.67;;;2.92;;
7398;SDS011;3740;50.700;7.184;2022-10-17T15:46:40;4.28;;;3.50;;
7398;SDS011;3740;50.700;7.184;2022-10-17T15:49:09;4.10;;;3.17;;
7398;SDS011;3740;50.700;7.184;2022-10-17T15:51:40;5.18;;;3.50;;
7398;SDS011;3740;50.700;7.184;2022-10-17T15:54:06;6.10;;;3.35;;
7398;SDS011;3740;50.700;7.184;2022-10-17T15:56:37;5.15;;;2.97;;
7398;SDS011;3740;50.700;7.184;2022-10-17T15:59:12;5.03;;;3.55;;
7398;SDS011;3740;50.700;7.184;2022-10-17T16:01:42;4.57;;;3.20;;
7398;SDS011;3740;50.700;7.184;2022-10-17T16:04:09;4.85;;;3.38;;
7398;SDS011;3740;50.700;7.184;2022-10-17T16:06:37;5.32;;;3.13;;
7398;SDS011;3740;50.700;7.184;2022-10-17T16:09:03;4.20;;;3.05;;
7398;SDS011;3740;50.700;7.184;2022-10-17T16:11:35;3.42;;;3.13;;
7398;SDS011;3740;50.700;7.184;2022-10-17T16:14:04;4.28;;;3.30;;
7398;SDS011;3740;50.700;7.184;2022-10-17T16:16:31;5.80;;;3.63;;
7398;SDS011;3740;50.700;7.184;2022-10-17T16:18:57;3.72;;;2.95;;
7398;SDS011;3740;50.700;7.184;2022-10-17T16:21:27;4.13;;;2.83;;
7398;SDS011;3740;50.700;7.184;2022-10-17T16:23:55;4.85;;;3.10;;
7398;SDS011;3740;50.700;7.184;2022-10-17T16:26:21;4.55;;;3.50;;
7398;SDS011;3740;50.700;7.184;2022-10-17T16:28:47;4.47;;;3.42;;
7398;SDS011;3740;50.700;7.184;2022-10-17T16:31:20;4.60;;;3.45;;
7398;SDS011;3740;50.700;7.184;2022-10-17T16:33:53;5.80;;;3.85;;
7398;SDS011;3740;50.700;7.184;2022-10-17T16:36:20;6.40;;;3.85;;
7398;SDS011;3740;50.700;7.184;2022-10-17T16:38:46;6.90;;;4.18;;
7398;SDS011;3740;50.700;7.184;2022-10-17T16:41:34;4.78;;;3.63;;
7398;SDS011;3740;50.700;7.184;2022-10-17T16:44:03;7.00;;;4.43;;
7398;SDS011;3740;50.700;7.184;2022-10-17T16:46:35;5.90;;;3.55;;
7398;SDS011;3740;50.700;7.184;2022-10-17T16:49:02;4.53;;;3.28;;
7398;SDS011;3740;50.700;7.184;2022-10-17T16:51:29;3.50;;;3.20;;
7398;SDS011;3740;50.700;7.184;2022-10-17T16:53:55;4.32;;;3.45;;
7398;SDS011;3740;50.700;7.184;2022-10-17T16:56:26;7.43;;;4.10;;
7398;SDS011;3740;50.700;7.184;2022-10-17T16:58:56;4.38;;;3.40;;
7398;SDS011;3740;50.700;7.184;2022-10-17T17:01:23;5.93;;;3.92;;
7398;SDS011;3740;50.700;7.184;2022-10-17T17:03:50;6.38;;;4.60;;
7398;SDS011;3740;50.700;7.184;2022-10-17T17:06:18;5.63;;;4.50;;
7398;SDS011;3740;50.700;7.184;2022-10-17T17:08:48;6.30;;;4.53;;
7398;SDS011;3740;50.700;7.184;2022-10-17T17:11:16;6.28;;;4.40;;
7398;SDS011;3740;50.700;7.184;2022-10-17T17:13:43;5.82;;;4.43;;
7398;SDS011;3740;50.700;7.184;2022-10-17T17:18:39;4.53;;;3.95;;
7398;SDS011;3740;50.700;7.184;2022-10-17T17:21:06;5.97;;;4.47;;
7398;SDS011;3740;50.700;7.184;2022-10-17T17:23:34;6.55;;;4.90;;
7398;SDS011;3740;50.700;7.184;2022-10-17T17:26:06;5.63;;;4.43;;